createdAt,value
2019-02-06T00:00:58.620Z,66.81
2019-02-06T00:03:30.276Z,66.89
2019-02-06T00:06:01.939Z,66.68
2019-02-06T00:08:33.662Z,66.65
2019-02-06T00:11:05.316Z,66.96
2019-02-06T00:13:37.284Z,66.76
2019-02-06T00:16:08.953Z,66.83
2019-02-06T00:18:40.641Z,66.79
2019-02-06T00:21:12.454Z,66.68
2019-02-06T00:23:44.078Z,66.56
2019-02-06T00:26:16.552Z,67.07
2019-02-06T00:28:48.632Z,67.11
2019-02-06T00:31:21.452Z,67.37
2019-02-06T00:33:53.177Z,67.29
2019-02-06T00:36:24.774Z,67.00
2019-02-06T00:38:56.704Z,66.91
2019-02-06T00:41:28.457Z,66.71
2019-02-06T00:44:00.213Z,66.55
2019-02-06T00:46:32.189Z,65.93
2019-02-06T00:49:03.792Z,66.53
2019-02-06T00:51:35.598Z,65.82
2019-02-06T00:54:07.199Z,65.71
2019-02-06T00:56:38.960Z,65.50
2019-02-06T00:59:10.868Z,65.59
2019-02-06T01:01:42.438Z,65.43
2019-02-06T01:04:14.385Z,65.55
2019-02-06T01:06:45.985Z,65.84
2019-02-06T01:09:17.550Z,65.57
2019-02-06T01:11:49.196Z,65.38
2019-02-06T01:14:21.333Z,65.06
2019-02-06T01:16:53.249Z,64.67
2019-02-06T01:19:24.905Z,64.67
2019-02-06T01:21:56.553Z,64.26
2019-02-06T01:24:28.388Z,64.16
2019-02-06T01:27:00.104Z,64.25
2019-02-06T01:29:32.532Z,64.77
2019-02-06T01:32:04.344Z,64.70
2019-02-06T01:34:36.071Z,64.37
2019-02-06T01:37:07.839Z,64.77
2019-02-06T01:39:39.480Z,64.91
2019-02-06T01:42:11.450Z,64.43
2019-02-06T01:44:44.021Z,64.30
2019-02-06T01:47:16.252Z,64.79
2019-02-06T01:49:47.844Z,64.73
2019-02-06T01:52:19.433Z,64.62
2019-02-06T01:54:51.102Z,65.01
2019-02-06T01:57:22.770Z,64.52
2019-02-06T01:59:55.003Z,64.80
2019-02-06T02:02:26.666Z,65.09
2019-02-06T02:05:00.343Z,64.95
2019-02-06T02:07:31.526Z,64.62
2019-02-06T02:10:04.896Z,64.71
2019-02-06T02:12:36.487Z,64.87
2019-02-06T02:15:14.866Z,64.57
2019-02-06T02:17:46.465Z,64.45
2019-02-06T02:20:22.072Z,64.10
2019-02-06T02:22:53.698Z,63.70
2019-02-06T02:25:25.374Z,64.11
2019-02-06T02:27:56.963Z,63.79
2019-02-06T02:30:39.624Z,63.53
2019-02-06T02:33:11.265Z,63.31
2019-02-06T02:35:42.839Z,63.01
2019-02-06T02:38:14.429Z,63.68
2019-02-06T02:40:46.071Z,63.80
2019-02-06T02:43:17.661Z,64.01
2019-02-06T02:45:49.301Z,63.30
2019-02-06T02:48:20.895Z,63.06
2019-02-06T02:50:52.549Z,62.73
2019-02-06T02:53:24.177Z,62.89
2019-02-06T02:55:55.918Z,62.54
2019-02-06T02:58:27.509Z,62.60
2019-02-06T03:01:01.807Z,62.22
2019-02-06T03:03:35.081Z,62.16
2019-02-06T03:06:06.696Z,62.08
2019-02-06T03:08:38.456Z,63.17
2019-02-06T03:11:10.027Z,63.42
2019-02-06T03:13:41.634Z,62.87
2019-02-06T03:16:13.657Z,62.74
2019-02-06T03:18:45.384Z,62.50
2019-02-06T03:21:16.983Z,62.04
2019-02-06T03:23:48.553Z,62.75
2019-02-06T03:26:21.216Z,62.64
2019-02-06T03:28:52.952Z,62.73
2019-02-06T03:31:24.695Z,62.74
2019-02-06T03:33:56.290Z,62.68
2019-02-06T03:36:39.601Z,63.03
2019-02-06T03:39:01.249Z,62.99
2019-02-06T03:41:33.102Z,63.09
2019-02-06T03:44:05.026Z,63.41
2019-02-06T03:46:36.622Z,62.81
2019-02-06T03:49:08.313Z,62.86
2019-02-06T03:51:39.980Z,63.03
2019-02-06T03:54:11.646Z,63.46
2019-02-06T03:56:43.317Z,63.43
2019-02-06T03:59:14.971Z,63.08
2019-02-06T04:01:47.044Z,63.52
2019-02-06T04:04:18.665Z,62.96
2019-02-06T04:06:55.042Z,63.11
2019-02-06T04:09:23.661Z,63.17
2019-02-06T04:11:55.283Z,62.80
2019-02-06T04:14:26.861Z,62.43
2019-02-06T04:16:58.449Z,63.21
2019-02-06T04:19:30.030Z,63.21
2019-02-06T04:22:01.617Z,63.22
2019-02-06T04:24:33.195Z,63.54
2019-02-06T04:27:04.789Z,63.26
2019-02-06T04:29:36.489Z,63.37
2019-02-06T04:32:08.070Z,63.04
2019-02-06T04:34:39.696Z,63.66
2019-02-06T04:37:23.807Z,63.63
2019-02-06T04:39:55.464Z,63.95
2019-02-06T04:42:27.133Z,64.07
2019-02-06T04:44:58.797Z,64.07
2019-02-06T04:47:30.735Z,63.81
2019-02-06T04:50:03.155Z,63.34
2019-02-06T04:52:34.930Z,63.30
2019-02-06T04:55:10.244Z,63.27
2019-02-06T04:57:41.970Z,62.92
2019-02-06T05:00:26.359Z,63.00
2019-02-06T05:02:58.022Z,63.03
2019-02-06T05:05:30.079Z,63.55
2019-02-06T05:08:01.678Z,64.03
2019-02-06T05:10:33.602Z,64.32
2019-02-06T05:13:05.187Z,64.15
2019-02-06T05:15:36.846Z,64.24
2019-02-06T05:18:08.540Z,64.66
2019-02-06T05:20:40.374Z,64.44
2019-02-06T05:23:12.236Z,64.81
2019-02-06T05:25:43.861Z,64.72
2019-02-06T05:28:17.995Z,64.61
2019-02-06T05:30:48.760Z,64.33
2019-02-06T05:33:20.439Z,64.40
2019-02-06T05:35:52.409Z,63.83
2019-02-06T05:38:24.097Z,64.05
2019-02-06T05:40:55.700Z,63.84
2019-02-06T05:43:27.291Z,63.39
2019-02-06T05:45:58.876Z,63.18
2019-02-06T05:48:30.482Z,63.07
2019-02-06T05:51:02.218Z,62.84
2019-02-06T05:53:33.880Z,62.53
2019-02-06T05:56:05.479Z,62.46
2019-02-06T05:58:37.148Z,62.36
2019-02-06T06:01:08.921Z,62.10
2019-02-06T06:03:41.591Z,62.45
2019-02-06T06:06:13.278Z,63.02
2019-02-06T06:08:44.912Z,62.64
2019-02-06T06:11:16.596Z,62.65
2019-02-06T06:13:48.250Z,62.62
2019-02-06T06:16:20.083Z,63.17
2019-02-06T06:18:51.652Z,62.86
2019-02-06T06:21:23.300Z,62.30
2019-02-06T06:23:54.931Z,62.83
2019-02-06T06:26:26.653Z,63.54
2019-02-06T06:28:58.694Z,62.96
2019-02-06T06:31:30.282Z,62.68
2019-02-06T06:34:02.252Z,62.71
2019-02-06T06:36:33.873Z,62.62
2019-02-06T06:39:07.821Z,62.16
2019-02-06T06:41:39.959Z,61.69
2019-02-06T06:44:11.597Z,61.48
2019-02-06T06:46:43.261Z,61.27
2019-02-06T06:49:14.871Z,62.23
2019-02-06T06:51:47.065Z,61.96
2019-02-06T06:54:19.081Z,61.64
2019-02-06T06:56:50.753Z,61.28
2019-02-06T06:59:22.400Z,61.04
2019-02-06T07:01:54.044Z,60.91
2019-02-06T07:04:25.790Z,61.18
2019-02-06T07:06:58.167Z,60.73
2019-02-06T07:09:29.777Z,60.39
2019-02-06T07:12:01.411Z,60.19
2019-02-06T07:14:33.264Z,60.33
2019-02-06T07:17:04.931Z,60.66
2019-02-06T07:19:37.037Z,60.50
2019-02-06T07:22:08.637Z,59.94
2019-02-06T07:24:40.536Z,60.21
2019-02-06T07:27:14.137Z,59.94
2019-02-06T07:29:45.808Z,59.72
2019-02-06T07:32:17.865Z,59.62
2019-02-06T07:34:51.506Z,60.23
2019-02-06T07:37:23.253Z,59.90
2019-02-06T07:39:54.992Z,59.62
2019-02-06T07:42:26.668Z,59.72
2019-02-06T07:44:58.564Z,59.75
2019-02-06T07:47:30.220Z,59.12
2019-02-06T07:50:02.250Z,58.91
2019-02-06T07:52:33.983Z,58.67
2019-02-06T07:55:06.927Z,59.29
2019-02-06T07:57:38.875Z,59.32
2019-02-06T08:00:10.539Z,59.21
2019-02-06T08:02:42.340Z,59.00
2019-02-06T08:05:17.934Z,59.33
2019-02-06T08:07:50.560Z,58.66
2019-02-06T08:10:32.662Z,58.84
2019-02-06T08:13:05.084Z,58.51
2019-02-06T08:15:36.659Z,57.76
2019-02-06T08:18:08.320Z,57.70
2019-02-06T08:20:40.370Z,57.80
2019-02-06T08:23:12.452Z,57.63
2019-02-06T08:25:44.249Z,57.30
2019-02-06T08:28:15.841Z,57.62
2019-02-06T08:30:47.442Z,57.04
2019-02-06T08:33:19.446Z,57.44
2019-02-06T08:35:51.088Z,57.43
2019-02-06T08:38:23.142Z,57.60
2019-02-06T08:40:54.795Z,57.18
2019-02-06T08:43:26.593Z,57.21
2019-02-06T08:45:58.426Z,57.06
2019-02-06T08:48:30.102Z,56.92
2019-02-06T08:51:01.765Z,57.17
2019-02-06T08:53:33.897Z,56.61
2019-02-06T08:56:06.455Z,57.14
2019-02-06T08:58:38.409Z,57.05
2019-02-06T09:01:10.053Z,56.23
2019-02-06T09:03:41.714Z,56.18
2019-02-06T09:06:13.711Z,56.01
2019-02-06T09:08:46.395Z,56.16
2019-02-06T09:11:18.341Z,55.89
2019-02-06T09:13:50.078Z,55.53
2019-02-06T09:16:22.719Z,55.16
2019-02-06T09:18:54.454Z,55.02
2019-02-06T09:21:26.160Z,54.92
2019-02-06T09:23:58.600Z,54.92
2019-02-06T09:26:33.976Z,54.78
2019-02-06T09:29:05.590Z,54.81
2019-02-06T09:31:38.369Z,54.35
2019-02-06T09:34:11.045Z,53.74
2019-02-06T09:36:42.719Z,53.76
2019-02-06T09:39:14.381Z,53.29
2019-02-06T09:41:46.023Z,53.23
2019-02-06T09:44:19.221Z,52.54
2019-02-06T09:46:50.832Z,52.35
2019-02-06T09:49:22.500Z,52.87
2019-02-06T09:51:54.122Z,52.24
2019-02-06T09:54:25.773Z,52.29
2019-02-06T09:56:57.435Z,52.46
2019-02-06T09:59:29.582Z,51.79
2019-02-06T10:02:01.286Z,51.54
2019-02-06T10:04:34.539Z,51.83
2019-02-06T10:07:06.136Z,51.35
2019-02-06T10:09:37.778Z,51.80
2019-02-06T10:12:11.882Z,52.03
2019-02-06T10:14:42.767Z,52.74
2019-02-06T10:17:14.423Z,52.96
2019-02-06T10:19:46.282Z,52.63
2019-02-06T10:22:18.008Z,52.09
2019-02-06T10:24:49.659Z,51.66
2019-02-06T10:27:23.996Z,51.32
2019-02-06T10:29:55.278Z,51.64
2019-02-06T10:32:26.903Z,51.34
2019-02-06T10:34:58.559Z,51.40
2019-02-06T10:37:30.204Z,51.02
2019-02-06T10:40:01.774Z,50.36
2019-02-06T10:42:33.936Z,49.79
2019-02-06T10:45:20.921Z,49.82
2019-02-06T10:47:51.420Z,50.14
2019-02-06T10:50:43.065Z,50.06
2019-02-06T10:53:14.727Z,49.03
2019-02-06T10:55:46.610Z,49.12
2019-02-06T10:58:18.385Z,49.25
2019-02-06T11:00:55.935Z,49.04
2019-02-06T11:03:27.562Z,48.68
2019-02-06T11:05:59.236Z,49.04
2019-02-06T11:08:30.842Z,49.05
2019-02-06T11:11:02.777Z,49.01
2019-02-06T11:13:34.427Z,49.20
2019-02-06T11:16:06.282Z,49.23
2019-02-06T11:18:37.875Z,48.96
2019-02-06T11:21:09.555Z,48.23
2019-02-06T11:23:41.537Z,47.98
2019-02-06T11:26:13.252Z,48.57
2019-02-06T11:28:44.844Z,48.30
2019-02-06T11:31:16.528Z,48.83
2019-02-06T11:33:48.117Z,48.54
2019-02-06T11:36:24.273Z,49.43
2019-02-06T11:38:53.526Z,49.45
2019-02-06T11:41:25.204Z,49.90
2019-02-06T11:43:56.781Z,50.83
2019-02-06T11:46:28.455Z,50.41
2019-02-06T11:49:00.399Z,50.51
2019-02-06T11:51:32.058Z,50.49
2019-02-06T11:54:03.659Z,50.45
2019-02-06T11:56:35.258Z,50.61
2019-02-06T11:59:06.928Z,49.84
2019-02-06T12:01:39.905Z,49.25
2019-02-06T12:04:11.545Z,49.07
2019-02-06T12:06:43.223Z,49.10
2019-02-06T12:09:14.858Z,49.32
2019-02-06T12:11:46.539Z,50.28
2019-02-06T12:14:18.415Z,50.37
2019-02-06T12:16:50.591Z,50.23
2019-02-06T12:19:22.200Z,50.08
2019-02-06T12:21:53.800Z,50.02
2019-02-06T12:24:25.456Z,50.03
2019-02-06T12:26:57.498Z,50.21
2019-02-06T12:29:29.075Z,50.22
2019-02-06T12:32:01.249Z,50.17
2019-02-06T12:34:33.816Z,50.33
2019-02-06T12:37:05.576Z,50.30
2019-02-06T12:39:37.415Z,49.53
2019-02-06T12:42:09.188Z,49.46
2019-02-06T12:44:41.030Z,49.18
2019-02-06T12:47:13.241Z,49.07
2019-02-06T12:49:44.896Z,48.83
2019-02-06T12:52:16.507Z,48.64
2019-02-06T12:54:48.235Z,48.44
2019-02-06T12:57:19.823Z,48.70
2019-02-06T12:59:51.688Z,48.67
2019-02-06T13:02:23.416Z,48.55
2019-02-06T13:04:55.580Z,48.80
2019-02-06T13:07:27.286Z,48.97
2019-02-06T13:09:59.014Z,49.47
2019-02-06T13:12:30.746Z,49.38
2019-02-06T13:15:02.513Z,49.61
2019-02-06T13:17:34.258Z,49.00
2019-02-06T13:20:13.380Z,49.64
2019-02-06T13:22:45.034Z,49.51
2019-02-06T13:25:16.659Z,49.45
2019-02-06T13:27:48.397Z,49.63
2019-02-06T13:30:31.405Z,49.09
2019-02-06T13:33:03.123Z,48.74
2019-02-06T13:35:34.730Z,49.36
2019-02-06T13:38:06.613Z,49.43
2019-02-06T13:40:45.478Z,48.94
2019-02-06T13:43:11.609Z,48.99
2019-02-06T13:45:46.990Z,49.45
2019-02-06T13:48:19.647Z,49.42
2019-02-06T13:50:51.242Z,49.86
2019-02-06T13:53:22.840Z,49.77
2019-02-06T13:55:54.902Z,49.48
2019-02-06T13:58:26.584Z,49.29
2019-02-06T14:00:58.230Z,49.98
2019-02-06T14:03:30.504Z,50.06
2019-02-06T14:06:02.109Z,50.01
2019-02-06T14:08:34.056Z,50.51
2019-02-06T14:11:05.693Z,49.94
2019-02-06T14:13:37.288Z,50.17
2019-02-06T14:16:08.968Z,50.28
2019-02-06T14:18:40.635Z,50.70
2019-02-06T14:21:12.658Z,50.57
2019-02-06T14:23:49.143Z,50.31
2019-02-06T14:26:40.468Z,50.03
2019-02-06T14:29:29.291Z,50.74
2019-02-06T14:32:15.720Z,51.20
2019-02-06T14:35:11.348Z,50.87
2019-02-06T14:38:04.715Z,50.72
2019-02-06T14:41:08.678Z,50.87
2019-02-06T14:44:00.515Z,51.30
2019-02-06T14:47:11.378Z,51.31
2019-02-06T14:50:18.204Z,51.90
2019-02-06T14:53:06.511Z,52.10
2019-02-06T14:55:55.164Z,52.02
2019-02-06T14:58:47.031Z,51.87
2019-02-06T15:01:48.574Z,52.16
2019-02-06T15:04:40.241Z,52.48
2019-02-06T15:07:32.269Z,53.05
2019-02-06T15:10:20.714Z,52.64
2019-02-06T15:13:12.894Z,52.74
2019-02-06T15:16:18.574Z,53.04
2019-02-06T15:18:57.952Z,53.15
2019-02-06T15:21:58.128Z,53.96
2019-02-06T15:24:34.613Z,54.52
2019-02-06T15:27:32.634Z,53.89
2019-02-06T15:30:20.910Z,53.87
2019-02-06T15:33:29.525Z,54.80
2019-02-06T15:36:42.045Z,54.93
2019-02-06T15:39:24.101Z,55.10
2019-02-06T15:42:06.384Z,55.00
2019-02-06T15:45:21.037Z,54.93
2019-02-06T15:48:21.385Z,54.68
2019-02-06T15:51:17.729Z,54.28
2019-02-06T15:54:16.340Z,54.91
2019-02-06T15:57:18.966Z,54.81
2019-02-06T16:00:27.656Z,55.46
2019-02-06T16:03:29.950Z,55.48
2019-02-06T16:06:23.518Z,55.16
2019-02-06T16:09:29.810Z,55.02
2019-02-06T16:12:20.656Z,55.34
2019-02-06T16:15:12.077Z,55.01
2019-02-06T16:18:05.484Z,55.01
2019-02-06T16:21:03.343Z,55.25
2019-02-06T16:24:00.957Z,55.34
2019-02-06T16:26:54.255Z,55.72
2019-02-06T16:30:00.249Z,55.45
2019-02-06T16:32:58.309Z,55.05
2019-02-06T16:36:07.943Z,54.72
2019-02-06T16:38:53.142Z,55.14
2019-02-06T16:41:54.798Z,54.94
2019-02-06T16:44:47.733Z,54.35
2019-02-06T16:47:51.268Z,54.84
2019-02-06T16:50:47.516Z,54.44
2019-02-06T16:53:46.784Z,55.37
2019-02-06T16:56:47.458Z,55.12
2019-02-06T16:59:33.415Z,55.12
2019-02-06T17:02:27.613Z,55.07
2019-02-06T17:05:38.951Z,54.92
2019-02-06T17:08:38.564Z,55.41
2019-02-06T17:11:31.485Z,54.67
2019-02-06T17:14:35.421Z,55.31
2019-02-06T17:17:35.712Z,55.74
2019-02-06T17:20:30.341Z,55.41
2019-02-06T17:23:15.463Z,56.20
2019-02-06T17:26:10.163Z,56.46
2019-02-06T17:29:30.364Z,55.73
2019-02-06T17:32:24.768Z,56.04
2019-02-06T17:35:13.162Z,55.89
2019-02-06T17:38:19.916Z,55.48
2019-02-06T17:41:08.254Z,56.44
2019-02-06T17:44:09.201Z,56.71
2019-02-06T17:47:17.045Z,56.77
2019-02-06T17:50:02.485Z,56.74
2019-02-06T17:53:04.454Z,56.91
2019-02-06T17:55:36.075Z,57.11
2019-02-06T17:58:08.061Z,57.03
2019-02-06T18:00:50.143Z,57.30
2019-02-06T18:03:22.474Z,56.92
2019-02-06T18:05:54.406Z,56.96
2019-02-06T18:08:26.024Z,56.86
2019-02-06T18:10:58.820Z,56.86
2019-02-06T18:13:30.614Z,56.99
2019-02-06T18:16:02.270Z,56.40
2019-02-06T18:18:34.390Z,56.72
2019-02-06T18:21:06.080Z,56.73
2019-02-06T18:23:37.958Z,57.03
2019-02-06T18:26:09.605Z,57.18
2019-02-06T18:28:41.265Z,56.79
2019-02-06T18:31:13.322Z,56.49
2019-02-06T18:33:45.451Z,56.62
2019-02-06T18:36:17.109Z,56.21
2019-02-06T18:38:49.575Z,56.62
2019-02-06T18:41:21.246Z,56.69
2019-02-06T18:43:53.203Z,56.78
2019-02-06T18:46:24.894Z,57.92
2019-02-06T18:48:56.955Z,58.20
2019-02-06T18:51:28.623Z,57.84
2019-02-06T18:54:00.238Z,57.73
2019-02-06T18:56:31.972Z,58.14
2019-02-06T18:59:03.691Z,58.43
2019-02-06T19:01:36.046Z,58.54
2019-02-06T19:04:11.229Z,58.96
2019-02-06T19:06:43.187Z,58.56
2019-02-06T19:09:15.106Z,58.28
2019-02-06T19:11:47.075Z,58.64
2019-02-06T19:14:19.253Z,59.35
2019-02-06T19:16:51.222Z,59.04
2019-02-06T19:19:25.397Z,59.68
2019-02-06T19:21:56.850Z,59.49
2019-02-06T19:24:28.735Z,59.26
2019-02-06T19:27:00.404Z,58.80
2019-02-06T19:29:32.168Z,58.84
2019-02-06T19:32:03.830Z,58.88
2019-02-06T19:34:38.578Z,59.21
2019-02-06T19:37:10.182Z,58.79
2019-02-06T19:39:41.883Z,59.49
2019-02-06T19:42:13.897Z,59.56
2019-02-06T19:44:45.923Z,59.88
2019-02-06T19:47:20.502Z,59.61
2019-02-06T19:49:52.126Z,59.86
2019-02-06T19:52:23.901Z,60.19
2019-02-06T19:54:55.893Z,59.74
2019-02-06T19:57:27.522Z,59.89
2019-02-06T19:59:59.218Z,59.58
2019-02-06T20:02:30.808Z,59.42
2019-02-06T20:05:02.482Z,59.46
2019-02-06T20:07:34.334Z,60.05
2019-02-06T20:10:13.990Z,60.11
2019-02-06T20:12:45.886Z,59.90
2019-02-06T20:15:17.822Z,59.79
2019-02-06T20:17:49.519Z,59.57
2019-02-06T20:20:26.992Z,60.07
2019-02-06T20:22:58.894Z,59.88
2019-02-06T20:25:31.041Z,60.16
2019-02-06T20:28:02.697Z,59.73
2019-02-06T20:30:34.513Z,60.03
2019-02-06T20:33:06.218Z,59.94
2019-02-06T20:35:38.238Z,59.85
2019-02-06T20:38:09.951Z,59.84
2019-02-06T20:40:44.610Z,59.58
2019-02-06T20:43:22.271Z,60.10
2019-02-06T20:45:49.991Z,60.03
2019-02-06T20:48:21.938Z,60.00
2019-02-06T20:50:53.872Z,60.33
2019-02-06T20:53:25.985Z,60.26
2019-02-06T20:55:57.673Z,60.39
2019-02-06T20:58:29.461Z,60.51
2019-02-06T21:01:01.484Z,60.39
2019-02-06T21:03:33.730Z,60.76
2019-02-06T21:06:05.535Z,61.07
2019-02-06T21:08:37.796Z,61.38
2019-02-06T21:11:09.417Z,61.44
2019-02-06T21:13:41.144Z,61.82
2019-02-06T21:16:12.809Z,61.68
2019-02-06T21:18:46.115Z,61.67
2019-02-06T21:21:17.889Z,61.54
2019-02-06T21:23:49.987Z,61.09
2019-02-06T21:26:21.589Z,60.65
2019-02-06T21:28:53.228Z,60.82
2019-02-06T21:31:24.878Z,60.51
2019-02-06T21:33:56.566Z,60.36
2019-02-06T21:36:28.161Z,60.58
2019-02-06T21:39:00.080Z,60.75
2019-02-06T21:41:32.048Z,60.30
2019-02-06T21:44:03.776Z,60.79
2019-02-06T21:46:35.478Z,61.08
2019-02-06T21:49:07.151Z,61.41
2019-02-06T21:51:39.532Z,61.11
2019-02-06T21:54:11.780Z,61.13
2019-02-06T21:56:43.426Z,61.86
2019-02-06T21:59:15.031Z,61.46
2019-02-06T22:01:46.602Z,60.57
2019-02-06T22:04:18.206Z,60.92
2019-02-06T22:06:49.879Z,60.49
2019-02-06T22:09:21.676Z,60.52
2019-02-06T22:11:53.275Z,60.23
2019-02-06T22:14:24.848Z,60.98
2019-02-06T22:16:56.456Z,62.05
2019-02-06T22:19:28.054Z,61.82
2019-02-06T22:21:59.963Z,60.97
2019-02-06T22:24:31.782Z,60.73
2019-02-06T22:27:03.430Z,60.85
2019-02-06T22:29:35.154Z,60.63
2019-02-06T22:32:06.817Z,60.40
2019-02-06T22:34:38.425Z,61.03
2019-02-06T22:37:10.279Z,60.79
2019-02-06T22:39:41.840Z,60.70
2019-02-06T22:42:14.081Z,60.30
2019-02-06T22:44:45.749Z,60.17
2019-02-06T22:47:17.405Z,60.19
2019-02-06T22:49:49.132Z,60.01
2019-02-06T22:52:22.922Z,60.64
2019-02-06T22:54:54.387Z,61.10
2019-02-06T22:57:26.147Z,60.44
2019-02-06T22:59:57.815Z,59.79
2019-02-06T23:02:29.537Z,59.38
2019-02-06T23:05:01.356Z,59.29
2019-02-06T23:07:33.733Z,59.43
2019-02-06T23:10:06.740Z,59.74
2019-02-06T23:12:38.937Z,59.03
2019-02-06T23:15:11.136Z,58.87
2019-02-06T23:17:42.801Z,58.69
2019-02-06T23:20:16.302Z,60.04
2019-02-06T23:22:48.253Z,59.19
2019-02-06T23:25:20.522Z,58.91
2019-02-06T23:27:52.291Z,59.05
2019-02-06T23:30:23.894Z,59.27
2019-02-06T23:32:55.553Z,60.13
2019-02-06T23:35:27.143Z,59.92
2019-02-06T23:37:58.816Z,59.62
2019-02-06T23:40:31.922Z,59.69
2019-02-06T23:43:03.584Z,60.13
2019-02-06T23:45:35.257Z,59.48
2019-02-06T23:48:06.914Z,59.86
2019-02-06T23:50:38.654Z,60.26
2019-02-06T23:53:10.475Z,60.00
2019-02-06T23:55:42.041Z,59.92
2019-02-06T23:58:14.208Z,59.99
